sensor_id;sensor_type;location;lat;lon;timestamp;temperature;humidity
24164;DHT22;12319;49.204;8.116;2023-05-16T00:00:52;16.50;73.90
24164;DHT22;12319;49.204;8.116;2023-05-16T00:03:18;15.80;73.30
24164;DHT22;12319;49.204;8.116;2023-05-16T00:05:44;15.80;73.30
24164;DHT22;12319;49.204;8.116;2023-05-16T00:08:11;15.80;73.30
24164;DHT22;12319;49.204;8.116;2023-05-16T00:10:36;15.80;73.60
24164;DHT22;12319;49.204;8.116;2023-05-16T00:13:02;15.70;73.80
24164;DHT22;12319;49.204;8.116;2023-05-16T00:15:28;15.70;74.00
24164;DHT22;12319;49.204;8.116;2023-05-16T00:17:57;15.70;74.10
24164;DHT22;12319;49.204;8.116;2023-05-16T00:20:27;16.70;75.30
24164;DHT22;12319;49.204;8.116;2023-05-16T00:22:53;15.60;74.40
24164;DHT22;12319;49.204;8.116;2023-05-16T00:25:19;15.60;74.50
24164;DHT22;12319;49.204;8.116;2023-05-16T00:27:45;15.60;74.70
24164;DHT22;12319;49.204;8.116;2023-05-16T00:30:11;15.60;74.70
24164;DHT22;12319;49.204;8.116;2023-05-16T00:32:37;15.60;74.80
24164;DHT22;12319;49.204;8.116;2023-05-16T00:35:02;15.50;74.80
24164;DHT22;12319;49.204;8.116;2023-05-16T00:37:28;15.50;74.80
24164;DHT22;12319;49.204;8.116;2023-05-16T00:39:54;15.40;74.90
24164;DHT22;12319;49.204;8.116;2023-05-16T00:42:19;15.90;75.30
24164;DHT22;12319;49.204;8.116;2023-05-16T00:44:46;15.50;75.00
24164;DHT22;12319;49.204;8.116;2023-05-16T00:47:11;15.40;74.90
24164;DHT22;12319;49.204;8.116;2023-05-16T00:49:37;15.40;74.80
24164;DHT22;12319;49.204;8.116;2023-05-16T00:52:03;15.40;75.00
24164;DHT22;12319;49.204;8.116;2023-05-16T00:54:29;15.40;75.00
24164;DHT22;12319;49.204;8.116;2023-05-16T00:56:55;15.40;75.00
24164;DHT22;12319;49.204;8.116;2023-05-16T00:59:22;15.40;75.10
24164;DHT22;12319;49.204;8.116;2023-05-16T01:01:49;15.40;75.20
24164;DHT22;12319;49.204;8.116;2023-05-16T01:04:16;15.40;75.20
24164;DHT22;12319;49.204;8.116;2023-05-16T01:06:42;15.40;75.20
24164;DHT22;12319;49.204;8.116;2023-05-16T01:09:08;15.40;75.20
24164;DHT22;12319;49.204;8.116;2023-05-16T01:11:51;15.40;75.30
24164;DHT22;12319;49.204;8.116;2023-05-16T01:14:34;15.30;75.40
24164;DHT22;12319;49.204;8.116;2023-05-16T01:17:19;15.30;75.40
24164;DHT22;12319;49.204;8.116;2023-05-16T01:28:06;15.30;75.70
24164;DHT22;12319;49.204;8.116;2023-05-16T01:30:39;15.30;75.50
24164;DHT22;12319;49.204;8.116;2023-05-16T01:33:06;15.30;75.60
24164;DHT22;12319;49.204;8.116;2023-05-16T01:35:32;15.30;75.60
24164;DHT22;12319;49.204;8.116;2023-05-16T01:37:58;15.20;75.40
24164;DHT22;12319;49.204;8.116;2023-05-16T01:40:35;15.60;75.90
24164;DHT22;12319;49.204;8.116;2023-05-16T01:43:07;15.30;75.90
24164;DHT22;12319;49.204;8.116;2023-05-16T01:45:38;15.30;75.90
24164;DHT22;12319;49.204;8.116;2023-05-16T01:48:07;15.20;76.00
24164;DHT22;12319;49.204;8.116;2023-05-16T01:50:42;15.20;76.10
24164;DHT22;12319;49.204;8.116;2023-05-16T01:53:14;15.20;76.10
24164;DHT22;12319;49.204;8.116;2023-05-16T01:55:46;15.20;76.40
24164;DHT22;12319;49.204;8.116;2023-05-16T01:58:14;15.20;76.30
24164;DHT22;12319;49.204;8.116;2023-05-16T02:00:40;15.10;76.10
24164;DHT22;12319;49.204;8.116;2023-05-16T02:03:06;15.10;76.10
24164;DHT22;12319;49.204;8.116;2023-05-16T02:05:32;15.10;76.30
24164;DHT22;12319;49.204;8.116;2023-05-16T02:07:58;15.00;76.10
24164;DHT22;12319;49.204;8.116;2023-05-16T02:10:24;14.90;76.20
24164;DHT22;12319;49.204;8.116;2023-05-16T02:12:51;15.00;76.50
24164;DHT22;12319;49.204;8.116;2023-05-16T02:15:17;14.90;76.50
24164;DHT22;12319;49.204;8.116;2023-05-16T02:17:43;14.90;76.70
24164;DHT22;12319;49.204;8.116;2023-05-16T02:20:09;14.70;76.80
24164;DHT22;12319;49.204;8.116;2023-05-16T02:22:35;14.80;76.80
24164;DHT22;12319;49.204;8.116;2023-05-16T02:25:02;14.70;76.90
24164;DHT22;12319;49.204;8.116;2023-05-16T02:27:28;14.70;77.20
24164;DHT22;12319;49.204;8.116;2023-05-16T02:29:54;14.60;77.00
24164;DHT22;12319;49.204;8.116;2023-05-16T02:32:19;14.50;77.10
24164;DHT22;12319;49.204;8.116;2023-05-16T02:34:45;14.50;77.20
24164;DHT22;12319;49.204;8.116;2023-05-16T02:37:11;14.50;77.40
24164;DHT22;12319;49.204;8.116;2023-05-16T02:39:36;14.50;77.40
24164;DHT22;12319;49.204;8.116;2023-05-16T02:42:02;14.40;77.40
24164;DHT22;12319;49.204;8.116;2023-05-16T02:44:28;14.30;77.90
24164;DHT22;12319;49.204;8.116;2023-05-16T02:46:54;14.30;77.70
24164;DHT22;12319;49.204;8.116;2023-05-16T02:49:19;14.30;77.90
24164;DHT22;12319;49.204;8.116;2023-05-16T02:51:45;14.20;77.80
24164;DHT22;12319;49.204;8.116;2023-05-16T02:54:11;14.20;77.80
24164;DHT22;12319;49.204;8.116;2023-05-16T02:56:37;14.20;77.80
24164;DHT22;12319;49.204;8.116;2023-05-16T02:59:02;14.10;77.80
24164;DHT22;12319;49.204;8.116;2023-05-16T03:01:29;14.10;78.00
24164;DHT22;12319;49.204;8.116;2023-05-16T03:03:54;14.10;78.20
24164;DHT22;12319;49.204;8.116;2023-05-16T03:06:20;14.00;78.30
24164;DHT22;12319;49.204;8.116;2023-05-16T03:08:46;14.00;78.40
24164;DHT22;12319;49.204;8.116;2023-05-16T03:11:12;13.90;78.30
24164;DHT22;12319;49.204;8.116;2023-05-16T03:13:37;13.90;78.50
24164;DHT22;12319;49.204;8.116;2023-05-16T03:16:03;13.90;78.60
24164;DHT22;12319;49.204;8.116;2023-05-16T03:18:29;13.80;78.60
24164;DHT22;12319;49.204;8.116;2023-05-16T03:20:54;13.70;78.60
24164;DHT22;12319;49.204;8.116;2023-05-16T03:23:20;13.70;78.80
24164;DHT22;12319;49.204;8.116;2023-05-16T03:25:46;13.60;78.90
24164;DHT22;12319;49.204;8.116;2023-05-16T03:28:12;13.70;79.10
24164;DHT22;12319;49.204;8.116;2023-05-16T03:30:37;13.70;79.20
24164;DHT22;12319;49.204;8.116;2023-05-16T03:33:03;13.60;79.10
24164;DHT22;12319;49.204;8.116;2023-05-16T03:35:30;13.60;79.10
24164;DHT22;12319;49.204;8.116;2023-05-16T03:37:56;13.60;79.30
24164;DHT22;12319;49.204;8.116;2023-05-16T03:40:21;13.60;79.40
24164;DHT22;12319;49.204;8.116;2023-05-16T03:42:47;13.60;79.60
24164;DHT22;12319;49.204;8.116;2023-05-16T03:45:12;13.60;79.70
24164;DHT22;12319;49.204;8.116;2023-05-16T03:50:05;13.50;79.40
24164;DHT22;12319;49.204;8.116;2023-05-16T03:52:30;13.50;80.10
24164;DHT22;12319;49.204;8.116;2023-05-16T03:54:56;13.50;80.10
24164;DHT22;12319;49.204;8.116;2023-05-16T03:57:21;13.50;80.10
24164;DHT22;12319;49.204;8.116;2023-05-16T03:59:47;13.60;79.70
24164;DHT22;12319;49.204;8.116;2023-05-16T04:02:13;13.60;80.20
24164;DHT22;12319;49.204;8.116;2023-05-16T04:04:38;13.60;80.20
24164;DHT22;12319;49.204;8.116;2023-05-16T04:07:04;13.60;80.20
24164;DHT22;12319;49.204;8.116;2023-05-16T04:09:30;13.60;80.20
24164;DHT22;12319;49.204;8.116;2023-05-16T04:11:56;13.70;80.30
24164;DHT22;12319;49.204;8.116;2023-05-16T04:14:22;13.70;80.30
24164;DHT22;12319;49.204;8.116;2023-05-16T04:16:48;13.70;80.30
24164;DHT22;12319;49.204;8.116;2023-05-16T04:19:14;13.70;80.20
24164;DHT22;12319;49.204;8.116;2023-05-16T04:21:39;13.80;80.30
24164;DHT22;12319;49.204;8.116;2023-05-16T04:24:05;13.80;80.30
24164;DHT22;12319;49.204;8.116;2023-05-16T04:26:31;14.00;80.30
24164;DHT22;12319;49.204;8.116;2023-05-16T04:28:57;14.00;80.20
24164;DHT22;12319;49.204;8.116;2023-05-16T04:31:24;14.10;80.10
24164;DHT22;12319;49.204;8.116;2023-05-16T04:33:49;14.20;80.10
24164;DHT22;12319;49.204;8.116;2023-05-16T04:36:15;14.30;80.10
24164;DHT22;12319;49.204;8.116;2023-05-16T04:38:41;14.40;80.00
24164;DHT22;12319;49.204;8.116;2023-05-16T04:41:07;14.50;80.00
24164;DHT22;12319;49.204;8.116;2023-05-16T04:43:32;14.70;80.00
24164;DHT22;12319;49.204;8.116;2023-05-16T04:45:58;14.90;79.30
24164;DHT22;12319;49.204;8.116;2023-05-16T04:48:24;14.90;79.40
24164;DHT22;12319;49.204;8.116;2023-05-16T04:50:49;15.10;79.40
24164;DHT22;12319;49.204;8.116;2023-05-16T04:53:15;15.20;79.20
24164;DHT22;12319;49.204;8.116;2023-05-16T04:55:41;15.30;78.80
24164;DHT22;12319;49.204;8.116;2023-05-16T04:58:06;15.50;78.90
24164;DHT22;12319;49.204;8.116;2023-05-16T05:00:32;15.50;78.80
24164;DHT22;12319;49.204;8.116;2023-05-16T05:02:58;15.60;78.50
24164;DHT22;12319;49.204;8.116;2023-05-16T05:05:23;15.70;78.30
24164;DHT22;12319;49.204;8.116;2023-05-16T05:07:49;15.80;78.00
24164;DHT22;12319;49.204;8.116;2023-05-16T05:10:15;15.90;77.90
24164;DHT22;12319;49.204;8.116;2023-05-16T05:12:40;16.00;78.00
24164;DHT22;12319;49.204;8.116;2023-05-16T05:15:06;16.10;77.80
24164;DHT22;12319;49.204;8.116;2023-05-16T05:17:31;16.30;77.70
24164;DHT22;12319;49.204;8.116;2023-05-16T05:19:57;16.40;77.20
24164;DHT22;12319;49.204;8.116;2023-05-16T05:22:23;16.60;76.90
24164;DHT22;12319;49.204;8.116;2023-05-16T05:24:48;16.70;76.70
24164;DHT22;12319;49.204;8.116;2023-05-16T05:27:14;16.90;76.20
24164;DHT22;12319;49.204;8.116;2023-05-16T05:29:40;17.10;75.90
24164;DHT22;12319;49.204;8.116;2023-05-16T05:32:06;17.30;75.30
24164;DHT22;12319;49.204;8.116;2023-05-16T05:34:32;17.40;74.90
24164;DHT22;12319;49.204;8.116;2023-05-16T05:36:57;17.50;74.80
24164;DHT22;12319;49.204;8.116;2023-05-16T05:39:23;17.80;74.50
24164;DHT22;12319;49.204;8.116;2023-05-16T05:41:49;18.00;73.80
24164;DHT22;12319;49.204;8.116;2023-05-16T05:44:15;18.10;73.20
24164;DHT22;12319;49.204;8.116;2023-05-16T05:46:41;18.20;73.50
24164;DHT22;12319;49.204;8.116;2023-05-16T05:49:06;18.30;73.10
24164;DHT22;12319;49.204;8.116;2023-05-16T05:51:32;18.40;73.40
24164;DHT22;12319;49.204;8.116;2023-05-16T05:53:58;18.50;73.30
24164;DHT22;12319;49.204;8.116;2023-05-16T05:56:23;18.60;72.90
24164;DHT22;12319;49.204;8.116;2023-05-16T05:58:49;18.70;72.20
24164;DHT22;12319;49.204;8.116;2023-05-16T06:01:15;18.60;71.50
24164;DHT22;12319;49.204;8.116;2023-05-16T06:03:41;18.40;72.00
24164;DHT22;12319;49.204;8.116;2023-05-16T06:06:07;18.30;72.10
24164;DHT22;12319;49.204;8.116;2023-05-16T06:08:33;18.10;71.90
24164;DHT22;12319;49.204;8.116;2023-05-16T06:10:59;18.30;72.40
24164;DHT22;12319;49.204;8.116;2023-05-16T06:13:25;18.00;72.30
24164;DHT22;12319;49.204;8.116;2023-05-16T06:15:51;18.00;72.50
24164;DHT22;12319;49.204;8.116;2023-05-16T06:18:17;18.00;72.50
24164;DHT22;12319;49.204;8.116;2023-05-16T06:20:42;17.90;72.20
24164;DHT22;12319;49.204;8.116;2023-05-16T06:23:08;17.80;72.20
24164;DHT22;12319;49.204;8.116;2023-05-16T06:25:34;17.70;71.90
24164;DHT22;12319;49.204;8.116;2023-05-16T06:27:59;17.40;71.80
24164;DHT22;12319;49.204;8.116;2023-05-16T06:30:25;17.20;71.90
24164;DHT22;12319;49.204;8.116;2023-05-16T06:35:16;16.80;72.10
24164;DHT22;12319;49.204;8.116;2023-05-16T06:37:42;16.70;72.80
24164;DHT22;12319;49.204;8.116;2023-05-16T06:40:08;16.60;72.90
24164;DHT22;12319;49.204;8.116;2023-05-16T06:42:33;16.40;73.10
24164;DHT22;12319;49.204;8.116;2023-05-16T06:44:59;16.30;73.50
24164;DHT22;12319;49.204;8.116;2023-05-16T06:47:24;16.20;73.60
24164;DHT22;12319;49.204;8.116;2023-05-16T06:49:50;16.20;73.70
24164;DHT22;12319;49.204;8.116;2023-05-16T06:52:16;16.10;73.70
24164;DHT22;12319;49.204;8.116;2023-05-16T06:54:41;16.10;74.00
24164;DHT22;12319;49.204;8.116;2023-05-16T06:57:07;16.10;74.20
24164;DHT22;12319;49.204;8.116;2023-05-16T06:59:35;16.10;74.10
24164;DHT22;12319;49.204;8.116;2023-05-16T07:02:01;16.00;73.80
24164;DHT22;12319;49.204;8.116;2023-05-16T07:04:26;16.00;73.90
24164;DHT22;12319;49.204;8.116;2023-05-16T07:06:52;16.10;73.90
24164;DHT22;12319;49.204;8.116;2023-05-16T07:09:19;16.20;74.00
24164;DHT22;12319;49.204;8.116;2023-05-16T07:11:45;16.30;73.90
24164;DHT22;12319;49.204;8.116;2023-05-16T07:14:10;16.60;74.00
24164;DHT22;12319;49.204;8.116;2023-05-16T07:16:36;16.80;73.00
24164;DHT22;12319;49.204;8.116;2023-05-16T07:19:01;16.90;72.50
24164;DHT22;12319;49.204;8.116;2023-05-16T07:21:27;16.90;72.20
24164;DHT22;12319;49.204;8.116;2023-05-16T07:23:53;16.90;72.00
24164;DHT22;12319;49.204;8.116;2023-05-16T07:26:22;16.80;71.90
24164;DHT22;12319;49.204;8.116;2023-05-16T07:28:49;16.80;71.90
24164;DHT22;12319;49.204;8.116;2023-05-16T07:31:15;16.80;71.90
24164;DHT22;12319;49.204;8.116;2023-05-16T07:33:41;16.90;71.30
24164;DHT22;12319;49.204;8.116;2023-05-16T07:36:07;17.00;70.90
24164;DHT22;12319;49.204;8.116;2023-05-16T07:38:32;17.00;69.80
24164;DHT22;12319;49.204;8.116;2023-05-16T07:40:58;16.90;69.70
24164;DHT22;12319;49.204;8.116;2023-05-16T07:43:24;16.80;69.50
24164;DHT22;12319;49.204;8.116;2023-05-16T07:45:50;16.70;69.70
24164;DHT22;12319;49.204;8.116;2023-05-16T07:48:16;16.70;69.60
24164;DHT22;12319;49.204;8.116;2023-05-16T07:50:42;16.60;69.40
24164;DHT22;12319;49.204;8.116;2023-05-16T07:53:08;16.60;69.40
24164;DHT22;12319;49.204;8.116;2023-05-16T07:55:34;16.40;69.70
24164;DHT22;12319;49.204;8.116;2023-05-16T07:57:59;16.40;70.00
24164;DHT22;12319;49.204;8.116;2023-05-16T08:00:25;16.30;70.20
24164;DHT22;12319;49.204;8.116;2023-05-16T08:02:51;16.30;70.30
24164;DHT22;12319;49.204;8.116;2023-05-16T08:05:16;16.30;70.10
24164;DHT22;12319;49.204;8.116;2023-05-16T08:07:42;16.30;70.00
24164;DHT22;12319;49.204;8.116;2023-05-16T08:10:07;16.30;69.80
24164;DHT22;12319;49.204;8.116;2023-05-16T08:12:33;16.40;70.10
24164;DHT22;12319;49.204;8.116;2023-05-16T08:14:59;16.40;70.00
24164;DHT22;12319;49.204;8.116;2023-05-16T08:17:24;16.40;69.50
24164;DHT22;12319;49.204;8.116;2023-05-16T08:19:50;16.40;69.50
24164;DHT22;12319;49.204;8.116;2023-05-16T08:22:15;16.40;69.70
24164;DHT22;12319;49.204;8.116;2023-05-16T08:24:41;16.70;69.70
24164;DHT22;12319;49.204;8.116;2023-05-16T08:27:06;17.10;69.80
24164;DHT22;12319;49.204;8.116;2023-05-16T08:29:33;18.10;69.50
24164;DHT22;12319;49.204;8.116;2023-05-16T08:31:58;19.20;68.50
24164;DHT22;12319;49.204;8.116;2023-05-16T08:34:24;19.80;67.40
24164;DHT22;12319;49.204;8.116;2023-05-16T08:36:49;20.20;65.80
24164;DHT22;12319;49.204;8.116;2023-05-16T08:39:15;20.20;64.10
24164;DHT22;12319;49.204;8.116;2023-05-16T08:41:41;19.90;63.50
24164;DHT22;12319;49.204;8.116;2023-05-16T08:44:06;19.60;63.60
24164;DHT22;12319;49.204;8.116;2023-05-16T08:46:34;19.20;64.70
24164;DHT22;12319;49.204;8.116;2023-05-16T08:49:01;18.80;64.30
24164;DHT22;12319;49.204;8.116;2023-05-16T08:51:32;18.50;65.20
24164;DHT22;12319;49.204;8.116;2023-05-16T08:54:03;18.10;64.80
24164;DHT22;12319;49.204;8.116;2023-05-16T08:56:32;17.70;65.80
24164;DHT22;12319;49.204;8.116;2023-05-16T08:58:58;17.40;66.20
24164;DHT22;12319;49.204;8.116;2023-05-16T09:01:24;17.10;66.60
24164;DHT22;12319;49.204;8.116;2023-05-16T09:03:50;17.00;67.00
24164;DHT22;12319;49.204;8.116;2023-05-16T09:06:17;16.90;67.30
24164;DHT22;12319;49.204;8.116;2023-05-16T09:08:43;16.80;67.40
24164;DHT22;12319;49.204;8.116;2023-05-16T09:11:08;16.70;67.40
24164;DHT22;12319;49.204;8.116;2023-05-16T09:13:34;16.50;67.30
24164;DHT22;12319;49.204;8.116;2023-05-16T09:16:19;16.40;67.80
24164;DHT22;12319;49.204;8.116;2023-05-16T09:18:58;16.20;68.10
24164;DHT22;12319;49.204;8.116;2023-05-16T09:21:28;16.10;68.40
24164;DHT22;12319;49.204;8.116;2023-05-16T09:23:56;16.10;68.60
24164;DHT22;12319;49.204;8.116;2023-05-16T09:26:21;16.00;68.80
24164;DHT22;12319;49.204;8.116;2023-05-16T09:28:47;16.00;68.90
24164;DHT22;12319;49.204;8.116;2023-05-16T09:31:22;16.00;68.60
24164;DHT22;12319;49.204;8.116;2023-05-16T09:33:51;16.10;68.80
24164;DHT22;12319;49.204;8.116;2023-05-16T09:36:16;16.20;68.80
24164;DHT22;12319;49.204;8.116;2023-05-16T09:38:42;16.40;68.50
24164;DHT22;12319;49.204;8.116;2023-05-16T09:41:09;16.50;68.00
24164;DHT22;12319;49.204;8.116;2023-05-16T09:43:40;16.60;68.00
24164;DHT22;12319;49.204;8.116;2023-05-16T09:46:07;16.80;68.00
24164;DHT22;12319;49.204;8.116;2023-05-16T09:48:33;17.00;68.00
24164;DHT22;12319;49.204;8.116;2023-05-16T09:50:59;17.20;67.90
24164;DHT22;12319;49.204;8.116;2023-05-16T09:53:30;17.40;67.80
24164;DHT22;12319;49.204;8.116;2023-05-16T09:56:19;17.60;66.80
24164;DHT22;12319;49.204;8.116;2023-05-16T09:58:45;17.70;66.40
24164;DHT22;12319;49.204;8.116;2023-05-16T10:01:12;17.70;66.00
24164;DHT22;12319;49.204;8.116;2023-05-16T10:03:40;17.70;66.20
24164;DHT22;12319;49.204;8.116;2023-05-16T10:06:07;17.50;65.60
24164;DHT22;12319;49.204;8.116;2023-05-16T10:08:34;17.50;66.00
24164;DHT22;12319;49.204;8.116;2023-05-16T10:11:05;17.20;66.00
24164;DHT22;12319;49.204;8.116;2023-05-16T10:13:35;17.00;66.10
24164;DHT22;12319;49.204;8.116;2023-05-16T10:16:09;16.90;66.40
24164;DHT22;12319;49.204;8.116;2023-05-16T10:18:37;16.80;66.60
24164;DHT22;12319;49.204;8.116;2023-05-16T10:21:06;16.70;66.70
24164;DHT22;12319;49.204;8.116;2023-05-16T10:23:32;16.60;67.20
24164;DHT22;12319;49.204;8.116;2023-05-16T10:26:03;16.40;66.80
24164;DHT22;12319;49.204;8.116;2023-05-16T10:28:30;16.30;67.10
24164;DHT22;12319;49.204;8.116;2023-05-16T10:30:57;16.20;67.40
24164;DHT22;12319;49.204;8.116;2023-05-16T10:33:23;16.10;67.40
24164;DHT22;12319;49.204;8.116;2023-05-16T10:35:49;15.90;67.60
24164;DHT22;12319;49.204;8.116;2023-05-16T10:38:17;15.90;67.80
24164;DHT22;12319;49.204;8.116;2023-05-16T10:40:42;15.70;67.90
24164;DHT22;12319;49.204;8.116;2023-05-16T10:43:09;15.60;68.20
24164;DHT22;12319;49.204;8.116;2023-05-16T10:45:39;15.40;68.30
24164;DHT22;12319;49.204;8.116;2023-05-16T10:48:06;15.30;68.80
24164;DHT22;12319;49.204;8.116;2023-05-16T10:50:36;15.30;69.10
24164;DHT22;12319;49.204;8.116;2023-05-16T10:53:20;15.20;69.00
24164;DHT22;12319;49.204;8.116;2023-05-16T11:01:16;15.30;69.00
24164;DHT22;12319;49.204;8.116;2023-05-16T11:06:30;15.40;69.40
24164;DHT22;12319;49.204;8.116;2023-05-16T11:11:50;15.60;69.10
24164;DHT22;12319;49.204;8.116;2023-05-16T11:14:26;15.70;68.60
24164;DHT22;12319;49.204;8.116;2023-05-16T11:22:20;15.70;68.50
24164;DHT22;12319;49.204;8.116;2023-05-16T11:25:04;15.70;68.50
24164;DHT22;12319;49.204;8.116;2023-05-16T11:27:41;15.70;68.30
24164;DHT22;12319;49.204;8.116;2023-05-16T11:30:14;15.70;68.30
24164;DHT22;12319;49.204;8.116;2023-05-16T11:32:43;15.70;68.50
24164;DHT22;12319;49.204;8.116;2023-05-16T11:35:11;15.70;68.00
24164;DHT22;12319;49.204;8.116;2023-05-16T11:37:37;15.70;67.90
24164;DHT22;12319;49.204;8.116;2023-05-16T11:40:07;15.60;68.10
24164;DHT22;12319;49.204;8.116;2023-05-16T11:42:59;15.50;68.30
24164;DHT22;12319;49.204;8.116;2023-05-16T11:45:24;15.60;68.70
24164;DHT22;12319;49.204;8.116;2023-05-16T11:47:51;15.60;68.40
24164;DHT22;12319;49.204;8.116;2023-05-16T11:50:21;15.60;68.40
24164;DHT22;12319;49.204;8.116;2023-05-16T11:52:49;15.70;68.00
24164;DHT22;12319;49.204;8.116;2023-05-16T11:55:20;15.70;68.00
24164;DHT22;12319;49.204;8.116;2023-05-16T11:57:46;15.70;68.10
24164;DHT22;12319;49.204;8.116;2023-05-16T12:00:16;15.70;68.20
24164;DHT22;12319;49.204;8.116;2023-05-16T12:02:49;15.60;68.00
24164;DHT22;12319;49.204;8.116;2023-05-16T12:05:16;15.60;68.00
24164;DHT22;12319;49.204;8.116;2023-05-16T12:07:45;15.50;68.20
24164;DHT22;12319;49.204;8.116;2023-05-16T12:10:13;15.50;68.80
24164;DHT22;12319;49.204;8.116;2023-05-16T12:12:43;15.40;68.00
24164;DHT22;12319;49.204;8.116;2023-05-16T12:15:10;15.30;67.60
24164;DHT22;12319;49.204;8.116;2023-05-16T12:17:36;15.30;67.80
24164;DHT22;12319;49.204;8.116;2023-05-16T12:20:04;15.10;67.70
24164;DHT22;12319;49.204;8.116;2023-05-16T12:22:38;15.00;67.90
24164;DHT22;12319;49.204;8.116;2023-05-16T12:27:48;15.00;68.20
24164;DHT22;12319;49.204;8.116;2023-05-16T12:30:16;15.00;68.20
24164;DHT22;12319;49.204;8.116;2023-05-16T12:32:41;15.00;67.90
24164;DHT22;12319;49.204;8.116;2023-05-16T12:35:09;15.00;67.60
24164;DHT22;12319;49.204;8.116;2023-05-16T12:37:36;14.90;67.40
24164;DHT22;12319;49.204;8.116;2023-05-16T12:40:01;15.00;67.60
24164;DHT22;12319;49.204;8.116;2023-05-16T12:42:29;14.80;67.00
24164;DHT22;12319;49.204;8.116;2023-05-16T12:44:55;14.80;66.60
24164;DHT22;12319;49.204;8.116;2023-05-16T12:47:21;14.80;66.70
24164;DHT22;12319;49.204;8.116;2023-05-16T12:49:47;14.70;66.70
24164;DHT22;12319;49.204;8.116;2023-05-16T12:52:20;14.70;66.60
24164;DHT22;12319;49.204;8.116;2023-05-16T12:54:47;14.70;66.10
24164;DHT22;12319;49.204;8.116;2023-05-16T12:57:13;14.70;66.00
24164;DHT22;12319;49.204;8.116;2023-05-16T12:59:39;14.70;65.20
24164;DHT22;12319;49.204;8.116;2023-05-16T13:02:04;14.60;65.20
24164;DHT22;12319;49.204;8.116;2023-05-16T13:04:30;14.70;65.30
24164;DHT22;12319;49.204;8.116;2023-05-16T13:06:55;14.70;64.60
24164;DHT22;12319;49.204;8.116;2023-05-16T13:09:21;14.80;64.70
24164;DHT22;12319;49.204;8.116;2023-05-16T13:11:48;14.80;64.40
24164;DHT22;12319;49.204;8.116;2023-05-16T13:14:15;15.00;64.80
24164;DHT22;12319;49.204;8.116;2023-05-16T13:16:41;15.10;64.70
24164;DHT22;12319;49.204;8.116;2023-05-16T13:19:07;15.30;64.00
24164;DHT22;12319;49.204;8.116;2023-05-16T13:21:32;15.40;63.60
24164;DHT22;12319;49.204;8.116;2023-05-16T13:23:58;15.60;62.80
24164;DHT22;12319;49.204;8.116;2023-05-16T13:26:24;15.70;62.90
24164;DHT22;12319;49.204;8.116;2023-05-16T13:28:49;15.80;62.70
24164;DHT22;12319;49.204;8.116;2023-05-16T13:31:19;15.90;63.10
24164;DHT22;12319;49.204;8.116;2023-05-16T13:33:45;16.00;62.70
24164;DHT22;12319;49.204;8.116;2023-05-16T13:36:11;16.20;61.10
24164;DHT22;12319;49.204;8.116;2023-05-16T13:38:36;16.30;61.70
24164;DHT22;12319;49.204;8.116;2023-05-16T13:41:02;16.50;61.80
24164;DHT22;12319;49.204;8.116;2023-05-16T13:43:27;16.50;61.40
24164;DHT22;12319;49.204;8.116;2023-05-16T13:45:53;16.70;61.10
24164;DHT22;12319;49.204;8.116;2023-05-16T13:48:18;16.80;61.20
24164;DHT22;12319;49.204;8.116;2023-05-16T13:50:44;16.90;60.70
24164;DHT22;12319;49.204;8.116;2023-05-16T13:53:09;17.00;60.00
24164;DHT22;12319;49.204;8.116;2023-05-16T13:55:35;17.10;60.00
24164;DHT22;12319;49.204;8.116;2023-05-16T13:58:01;17.20;60.60
24164;DHT22;12319;49.204;8.116;2023-05-16T14:00:27;17.30;60.20
24164;DHT22;12319;49.204;8.116;2023-05-16T14:02:53;17.30;60.60
24164;DHT22;12319;49.204;8.116;2023-05-16T14:05:18;17.40;60.20
24164;DHT22;12319;49.204;8.116;2023-05-16T14:07:44;17.50;60.80
24164;DHT22;12319;49.204;8.116;2023-05-16T14:10:09;17.50;60.20
24164;DHT22;12319;49.204;8.116;2023-05-16T14:12:35;17.60;60.10
24164;DHT22;12319;49.204;8.116;2023-05-16T14:15:01;17.60;60.00
24164;DHT22;12319;49.204;8.116;2023-05-16T14:17:27;17.70;59.40
24164;DHT22;12319;49.204;8.116;2023-05-16T14:19:52;17.70;59.70
24164;DHT22;12319;49.204;8.116;2023-05-16T14:22:18;17.80;59.70
24164;DHT22;12319;49.204;8.116;2023-05-16T14:24:43;17.90;60.20
24164;DHT22;12319;49.204;8.116;2023-05-16T14:27:09;18.40;60.30
24164;DHT22;12319;49.204;8.116;2023-05-16T14:29:35;18.90;59.90
24164;DHT22;12319;49.204;8.116;2023-05-16T14:32:00;19.50;59.00
24164;DHT22;12319;49.204;8.116;2023-05-16T14:34:26;19.90;57.60
24164;DHT22;12319;49.204;8.116;2023-05-16T14:36:51;20.30;58.50
24164;DHT22;12319;49.204;8.116;2023-05-16T14:39:17;20.60;57.80
24164;DHT22;12319;49.204;8.116;2023-05-16T14:41:42;20.60;55.30
24164;DHT22;12319;49.204;8.116;2023-05-16T14:44:08;20.70;54.40
24164;DHT22;12319;49.204;8.116;2023-05-16T14:46:34;20.50;55.10
24164;DHT22;12319;49.204;8.116;2023-05-16T14:49:00;20.00;55.10
24164;DHT22;12319;49.204;8.116;2023-05-16T14:51:25;19.60;54.90
24164;DHT22;12319;49.204;8.116;2023-05-16T14:53:51;19.20;55.10
24164;DHT22;12319;49.204;8.116;2023-05-16T14:56:16;18.90;55.30
24164;DHT22;12319;49.204;8.116;2023-05-16T14:58:42;18.60;55.90
24164;DHT22;12319;49.204;8.116;2023-05-16T15:01:07;18.30;55.60
24164;DHT22;12319;49.204;8.116;2023-05-16T15:03:33;18.20;55.70
24164;DHT22;12319;49.204;8.116;2023-05-16T15:05:59;17.90;55.70
24164;DHT22;12319;49.204;8.116;2023-05-16T15:08:24;17.90;55.20
24164;DHT22;12319;49.204;8.116;2023-05-16T15:10:50;17.90;55.80
24164;DHT22;12319;49.204;8.116;2023-05-16T15:13:15;17.90;54.70
24164;DHT22;12319;49.204;8.116;2023-05-16T15:15:41;17.80;53.50
24164;DHT22;12319;49.204;8.116;2023-05-16T15:18:06;17.80;54.10
24164;DHT22;12319;49.204;8.116;2023-05-16T15:20:32;17.60;53.20
24164;DHT22;12319;49.204;8.116;2023-05-16T15:22:58;17.50;52.30
24164;DHT22;12319;49.204;8.116;2023-05-16T15:25:24;17.50;52.60
24164;DHT22;12319;49.204;8.116;2023-05-16T15:27:50;17.40;52.30
24164;DHT22;12319;49.204;8.116;2023-05-16T15:30:15;17.50;52.10
24164;DHT22;12319;49.204;8.116;2023-05-16T15:32:41;17.50;52.20
24164;DHT22;12319;49.204;8.116;2023-05-16T15:35:07;17.60;52.10
24164;DHT22;12319;49.204;8.116;2023-05-16T15:37:32;17.70;51.60
24164;DHT22;12319;49.204;8.116;2023-05-16T15:39:59;17.70;51.20
24164;DHT22;12319;49.204;8.116;2023-05-16T15:42:24;17.70;48.80
24164;DHT22;12319;49.204;8.116;2023-05-16T15:44:50;17.70;48.20
24164;DHT22;12319;49.204;8.116;2023-05-16T15:47:16;17.70;48.30
24164;DHT22;12319;49.204;8.116;2023-05-16T15:49:41;17.70;50.70
24164;DHT22;12319;49.204;8.116;2023-05-16T15:52:07;17.70;49.80
24164;DHT22;12319;49.204;8.116;2023-05-16T15:54:34;17.80;50.20
24164;DHT22;12319;49.204;8.116;2023-05-16T15:57:00;17.80;50.40
24164;DHT22;12319;49.204;8.116;2023-05-16T15:59:25;17.80;49.90